sensor_id;sensor_type;location;lat;lon;timestamp;P1;durP1;ratioP1;P2;durP2;ratioP2
20865;SDS011;10593;48.398;10.698;2024-02-21T00:00:52;3.50;;;2.00;;
20865;SDS011;10593;48.398;10.698;2024-02-21T00:03:18;2.20;;;2.00;;
20865;SDS011;10593;48.398;10.698;2024-02-21T00:05:44;3.10;;;2.23;;
20865;SDS011;10593;48.398;10.698;2024-02-21T00:08:10;5.27;;;2.20;;
20865;SDS011;10593;48.398;10.698;2024-02-21T00:10:36;3.80;;;2.30;;
20865;SDS011;10593;48.398;10.698;2024-02-21T00:13:01;3.40;;;2.60;;
20865;SDS011;10593;48.398;10.698;2024-02-21T00:15:28;2.60;;;2.27;;
20865;SDS011;10593;48.398;10.698;2024-02-21T00:17:53;4.07;;;2.10;;
20865;SDS011;10593;48.398;10.698;2024-02-21T00:20:19;3.50;;;2.50;;
20865;SDS011;10593;48.398;10.698;2024-02-21T00:22:45;3.23;;;2.33;;
20865;SDS011;10593;48.398;10.698;2024-02-21T00:25:11;4.60;;;2.33;;
20865;SDS011;10593;48.398;10.698;2024-02-21T00:27:37;3.63;;;2.23;;
20865;SDS011;10593;48.398;10.698;2024-02-21T00:30:04;3.50;;;2.30;;
20865;SDS011;10593;48.398;10.698;2024-02-21T00:32:30;4.10;;;2.17;;
20865;SDS011;10593;48.398;10.698;2024-02-21T00:34:57;4.93;;;2.77;;
20865;SDS011;10593;48.398;10.698;2024-02-21T00:37:22;3.93;;;2.50;;
20865;SDS011;10593;48.398;10.698;2024-02-21T00:39:48;4.43;;;2.43;;
20865;SDS011;10593;48.398;10.698;2024-02-21T00:42:14;3.23;;;2.50;;
20865;SDS011;10593;48.398;10.698;2024-02-21T00:44:39;3.63;;;2.50;;
20865;SDS011;10593;48.398;10.698;2024-02-21T00:47:05;4.13;;;2.43;;
20865;SDS011;10593;48.398;10.698;2024-02-21T00:49:31;2.60;;;2.40;;
20865;SDS011;10593;48.398;10.698;2024-02-21T00:51:56;2.30;;;2.07;;
20865;SDS011;10593;48.398;10.698;2024-02-21T00:54:22;4.70;;;2.57;;
20865;SDS011;10593;48.398;10.698;2024-02-21T00:56:48;2.17;;;2.07;;
20865;SDS011;10593;48.398;10.698;2024-02-21T00:59:13;2.57;;;1.97;;
20865;SDS011;10593;48.398;10.698;2024-02-21T01:01:39;3.70;;;2.20;;
20865;SDS011;10593;48.398;10.698;2024-02-21T01:04:07;4.63;;;2.53;;
20865;SDS011;10593;48.398;10.698;2024-02-21T01:06:34;2.77;;;2.03;;
20865;SDS011;10593;48.398;10.698;2024-02-21T01:09:00;4.17;;;2.00;;
20865;SDS011;10593;48.398;10.698;2024-02-21T01:11:25;2.63;;;2.43;;
20865;SDS011;10593;48.398;10.698;2024-02-21T01:13:52;4.67;;;2.57;;
20865;SDS011;10593;48.398;10.698;2024-02-21T01:16:18;2.80;;;2.23;;
20865;SDS011;10593;48.398;10.698;2024-02-21T01:18:43;3.90;;;2.40;;
20865;SDS011;10593;48.398;10.698;2024-02-21T01:21:09;4.40;;;2.67;;
20865;SDS011;10593;48.398;10.698;2024-02-21T01:23:35;4.83;;;2.60;;
20865;SDS011;10593;48.398;10.698;2024-02-21T01:26:02;5.83;;;2.37;;
20865;SDS011;10593;48.398;10.698;2024-02-21T01:28:29;3.63;;;2.30;;
20865;SDS011;10593;48.398;10.698;2024-02-21T01:30:55;2.40;;;1.97;;
20865;SDS011;10593;48.398;10.698;2024-02-21T01:33:22;3.00;;;2.37;;
20865;SDS011;10593;48.398;10.698;2024-02-21T01:35:48;2.87;;;2.30;;
20865;SDS011;10593;48.398;10.698;2024-02-21T01:38:14;3.23;;;2.20;;
20865;SDS011;10593;48.398;10.698;2024-02-21T01:40:40;4.00;;;2.10;;
20865;SDS011;10593;48.398;10.698;2024-02-21T01:43:15;4.03;;;2.60;;
20865;SDS011;10593;48.398;10.698;2024-02-21T01:45:46;2.87;;;2.37;;
20865;SDS011;10593;48.398;10.698;2024-02-21T01:48:24;3.20;;;2.27;;
20865;SDS011;10593;48.398;10.698;2024-02-21T01:50:51;3.03;;;2.37;;
20865;SDS011;10593;48.398;10.698;2024-02-21T01:53:20;4.77;;;2.77;;
20865;SDS011;10593;48.398;10.698;2024-02-21T01:55:50;3.73;;;2.67;;
20865;SDS011;10593;48.398;10.698;2024-02-21T01:58:16;4.63;;;2.37;;
20865;SDS011;10593;48.398;10.698;2024-02-21T02:00:43;2.50;;;2.20;;
20865;SDS011;10593;48.398;10.698;2024-02-21T02:03:11;3.90;;;2.43;;
20865;SDS011;10593;48.398;10.698;2024-02-21T02:05:44;5.70;;;2.07;;
20865;SDS011;10593;48.398;10.698;2024-02-21T02:08:15;3.63;;;2.63;;
20865;SDS011;10593;48.398;10.698;2024-02-21T02:10:42;2.93;;;2.27;;
20865;SDS011;10593;48.398;10.698;2024-02-21T02:13:09;2.43;;;1.93;;
20865;SDS011;10593;48.398;10.698;2024-02-21T02:15:41;3.53;;;2.20;;
20865;SDS011;10593;48.398;10.698;2024-02-21T02:18:12;3.10;;;2.10;;
20865;SDS011;10593;48.398;10.698;2024-02-21T02:20:40;5.27;;;2.67;;
20865;SDS011;10593;48.398;10.698;2024-02-21T02:25:37;4.40;;;2.67;;
20865;SDS011;10593;48.398;10.698;2024-02-21T02:28:05;3.83;;;2.13;;
20865;SDS011;10593;48.398;10.698;2024-02-21T02:30:34;3.07;;;2.10;;
20865;SDS011;10593;48.398;10.698;2024-02-21T02:33:04;2.30;;;2.10;;
20865;SDS011;10593;48.398;10.698;2024-02-21T02:35:30;4.53;;;1.97;;
20865;SDS011;10593;48.398;10.698;2024-02-21T02:37:57;4.47;;;2.27;;
20865;SDS011;10593;48.398;10.698;2024-02-21T02:40:23;2.33;;;2.13;;
20865;SDS011;10593;48.398;10.698;2024-02-21T02:42:49;3.17;;;2.00;;
20865;SDS011;10593;48.398;10.698;2024-02-21T02:45:16;3.03;;;2.10;;
20865;SDS011;10593;48.398;10.698;2024-02-21T02:47:46;2.53;;;1.93;;
20865;SDS011;10593;48.398;10.698;2024-02-21T02:50:12;3.37;;;2.17;;
20865;SDS011;10593;48.398;10.698;2024-02-21T02:52:38;2.33;;;2.00;;
20865;SDS011;10593;48.398;10.698;2024-02-21T02:55:05;4.63;;;2.40;;
20865;SDS011;10593;48.398;10.698;2024-02-21T02:57:31;3.63;;;2.30;;
20865;SDS011;10593;48.398;10.698;2024-02-21T02:59:57;2.53;;;2.10;;
20865;SDS011;10593;48.398;10.698;2024-02-21T03:02:23;4.40;;;2.20;;
20865;SDS011;10593;48.398;10.698;2024-02-21T03:04:49;3.03;;;2.10;;
20865;SDS011;10593;48.398;10.698;2024-02-21T03:07:15;3.37;;;2.37;;
20865;SDS011;10593;48.398;10.698;2024-02-21T03:09:41;4.23;;;2.57;;
20865;SDS011;10593;48.398;10.698;2024-02-21T03:12:09;3.50;;;2.37;;
20865;SDS011;10593;48.398;10.698;2024-02-21T03:14:35;3.97;;;2.10;;
20865;SDS011;10593;48.398;10.698;2024-02-21T03:17:01;3.90;;;2.47;;
20865;SDS011;10593;48.398;10.698;2024-02-21T03:19:28;3.00;;;2.10;;
20865;SDS011;10593;48.398;10.698;2024-02-21T03:21:54;4.80;;;2.00;;
20865;SDS011;10593;48.398;10.698;2024-02-21T03:24:20;3.23;;;2.20;;
20865;SDS011;10593;48.398;10.698;2024-02-21T03:26:46;2.80;;;1.83;;
20865;SDS011;10593;48.398;10.698;2024-02-21T03:29:14;3.37;;;2.00;;
20865;SDS011;10593;48.398;10.698;2024-02-21T03:31:41;4.53;;;2.17;;
20865;SDS011;10593;48.398;10.698;2024-02-21T03:34:07;4.17;;;2.17;;
20865;SDS011;10593;48.398;10.698;2024-02-21T03:36:36;3.87;;;2.10;;
20865;SDS011;10593;48.398;10.698;2024-02-21T03:39:01;4.43;;;2.33;;
20865;SDS011;10593;48.398;10.698;2024-02-21T03:41:28;3.70;;;2.13;;
20865;SDS011;10593;48.398;10.698;2024-02-21T03:43:54;5.07;;;2.33;;
20865;SDS011;10593;48.398;10.698;2024-02-21T03:46:20;3.27;;;1.90;;
20865;SDS011;10593;48.398;10.698;2024-02-21T03:48:46;3.00;;;2.27;;
20865;SDS011;10593;48.398;10.698;2024-02-21T03:51:11;3.17;;;2.47;;
20865;SDS011;10593;48.398;10.698;2024-02-21T03:53:37;3.67;;;1.97;;
20865;SDS011;10593;48.398;10.698;2024-02-21T03:56:03;3.00;;;2.10;;
20865;SDS011;10593;48.398;10.698;2024-02-21T03:58:32;1.90;;;1.80;;
20865;SDS011;10593;48.398;10.698;2024-02-21T04:01:01;2.37;;;2.00;;
20865;SDS011;10593;48.398;10.698;2024-02-21T04:03:28;1.93;;;1.83;;
20865;SDS011;10593;48.398;10.698;2024-02-21T04:05:55;4.67;;;2.47;;
20865;SDS011;10593;48.398;10.698;2024-02-21T04:08:22;2.70;;;2.20;;
20865;SDS011;10593;48.398;10.698;2024-02-21T04:10:48;3.23;;;1.80;;
20865;SDS011;10593;48.398;10.698;2024-02-21T04:13:14;2.43;;;2.23;;
20865;SDS011;10593;48.398;10.698;2024-02-21T04:15:40;3.63;;;2.47;;
20865;SDS011;10593;48.398;10.698;2024-02-21T04:18:05;3.00;;;2.13;;
20865;SDS011;10593;48.398;10.698;2024-02-21T04:20:31;2.87;;;2.67;;
20865;SDS011;10593;48.398;10.698;2024-02-21T04:22:57;3.50;;;2.70;;
20865;SDS011;10593;48.398;10.698;2024-02-21T04:25:23;3.43;;;2.50;;
20865;SDS011;10593;48.398;10.698;2024-02-21T04:27:49;3.87;;;2.90;;
20865;SDS011;10593;48.398;10.698;2024-02-21T04:30:14;2.67;;;2.47;;
20865;SDS011;10593;48.398;10.698;2024-02-21T04:32:41;4.10;;;3.73;;
20865;SDS011;10593;48.398;10.698;2024-02-21T04:35:07;5.20;;;3.27;;
20865;SDS011;10593;48.398;10.698;2024-02-21T04:37:33;3.43;;;2.60;;
20865;SDS011;10593;48.398;10.698;2024-02-21T04:39:59;3.37;;;2.40;;
20865;SDS011;10593;48.398;10.698;2024-02-21T04:42:25;3.13;;;2.13;;
20865;SDS011;10593;48.398;10.698;2024-02-21T04:44:51;2.77;;;2.20;;
20865;SDS011;10593;48.398;10.698;2024-02-21T04:47:17;2.23;;;2.03;;
20865;SDS011;10593;48.398;10.698;2024-02-21T04:49:43;3.67;;;2.20;;
20865;SDS011;10593;48.398;10.698;2024-02-21T04:52:09;1.90;;;1.80;;
20865;SDS011;10593;48.398;10.698;2024-02-21T04:54:35;3.33;;;2.33;;
20865;SDS011;10593;48.398;10.698;2024-02-21T04:57:00;2.90;;;1.90;;
20865;SDS011;10593;48.398;10.698;2024-02-21T04:59:26;2.80;;;2.10;;
20865;SDS011;10593;48.398;10.698;2024-02-21T05:01:52;3.03;;;2.00;;
20865;SDS011;10593;48.398;10.698;2024-02-21T05:04:17;3.07;;;2.30;;
20865;SDS011;10593;48.398;10.698;2024-02-21T05:06:43;2.10;;;1.93;;
20865;SDS011;10593;48.398;10.698;2024-02-21T05:09:09;2.17;;;1.90;;
20865;SDS011;10593;48.398;10.698;2024-02-21T05:11:35;3.83;;;2.20;;
20865;SDS011;10593;48.398;10.698;2024-02-21T05:14:02;2.27;;;2.07;;
20865;SDS011;10593;48.398;10.698;2024-02-21T05:16:29;2.93;;;1.93;;
20865;SDS011;10593;48.398;10.698;2024-02-21T05:18:55;3.57;;;2.50;;
20865;SDS011;10593;48.398;10.698;2024-02-21T05:21:25;3.23;;;2.23;;
20865;SDS011;10593;48.398;10.698;2024-02-21T05:23:52;3.00;;;2.10;;
20865;SDS011;10593;48.398;10.698;2024-02-21T05:26:21;2.73;;;2.53;;
20865;SDS011;10593;48.398;10.698;2024-02-21T05:28:50;2.83;;;2.20;;
20865;SDS011;10593;48.398;10.698;2024-02-21T05:31:20;5.03;;;2.50;;
20865;SDS011;10593;48.398;10.698;2024-02-21T05:33:46;2.33;;;2.17;;
20865;SDS011;10593;48.398;10.698;2024-02-21T05:36:12;4.27;;;2.53;;
20865;SDS011;10593;48.398;10.698;2024-02-21T05:38:38;4.03;;;2.57;;
20865;SDS011;10593;48.398;10.698;2024-02-21T05:41:04;2.77;;;2.57;;
20865;SDS011;10593;48.398;10.698;2024-02-21T05:43:31;3.47;;;2.50;;
20865;SDS011;10593;48.398;10.698;2024-02-21T05:45:57;2.43;;;2.23;;
20865;SDS011;10593;48.398;10.698;2024-02-21T05:48:23;3.90;;;2.17;;
20865;SDS011;10593;48.398;10.698;2024-02-21T05:50:49;2.87;;;1.90;;
20865;SDS011;10593;48.398;10.698;2024-02-21T05:53:15;2.90;;;2.60;;
20865;SDS011;10593;48.398;10.698;2024-02-21T05:55:40;3.10;;;2.00;;
20865;SDS011;10593;48.398;10.698;2024-02-21T05:58:06;3.27;;;2.00;;
20865;SDS011;10593;48.398;10.698;2024-02-21T06:00:35;2.87;;;1.90;;
20865;SDS011;10593;48.398;10.698;2024-02-21T06:03:00;2.40;;;2.03;;
20865;SDS011;10593;48.398;10.698;2024-02-21T06:05:27;2.97;;;1.80;;
20865;SDS011;10593;48.398;10.698;2024-02-21T06:07:53;3.13;;;2.20;;
20865;SDS011;10593;48.398;10.698;2024-02-21T06:10:18;2.13;;;1.63;;
20865;SDS011;10593;48.398;10.698;2024-02-21T06:12:44;2.53;;;1.70;;
20865;SDS011;10593;48.398;10.698;2024-02-21T06:15:09;2.80;;;1.90;;
20865;SDS011;10593;48.398;10.698;2024-02-21T06:17:35;4.60;;;2.10;;
20865;SDS011;10593;48.398;10.698;2024-02-21T06:20:01;1.83;;;1.67;;
20865;SDS011;10593;48.398;10.698;2024-02-21T06:22:26;2.43;;;1.90;;
20865;SDS011;10593;48.398;10.698;2024-02-21T06:24:52;2.40;;;2.20;;
20865;SDS011;10593;48.398;10.698;2024-02-21T06:27:19;5.13;;;3.20;;
20865;SDS011;10593;48.398;10.698;2024-02-21T06:29:45;4.63;;;4.17;;
20865;SDS011;10593;48.398;10.698;2024-02-21T06:32:10;5.30;;;4.80;;
20865;SDS011;10593;48.398;10.698;2024-02-21T06:34:36;4.53;;;3.87;;
20865;SDS011;10593;48.398;10.698;2024-02-21T06:37:02;4.40;;;3.87;;
20865;SDS011;10593;48.398;10.698;2024-02-21T06:39:28;3.77;;;3.47;;
20865;SDS011;10593;48.398;10.698;2024-02-21T06:41:54;4.00;;;3.67;;
20865;SDS011;10593;48.398;10.698;2024-02-21T06:44:21;3.53;;;3.23;;
20865;SDS011;10593;48.398;10.698;2024-02-21T06:46:47;3.63;;;2.83;;
20865;SDS011;10593;48.398;10.698;2024-02-21T06:49:13;4.17;;;2.90;;
20865;SDS011;10593;48.398;10.698;2024-02-21T06:51:43;3.37;;;3.03;;
20865;SDS011;10593;48.398;10.698;2024-02-21T06:54:09;2.77;;;2.57;;
20865;SDS011;10593;48.398;10.698;2024-02-21T06:56:35;3.73;;;2.70;;
20865;SDS011;10593;48.398;10.698;2024-02-21T06:59:02;3.70;;;3.23;;
20865;SDS011;10593;48.398;10.698;2024-02-21T07:01:29;3.63;;;3.23;;
20865;SDS011;10593;48.398;10.698;2024-02-21T07:03:55;3.10;;;2.80;;
20865;SDS011;10593;48.398;10.698;2024-02-21T07:06:21;3.20;;;2.90;;
20865;SDS011;10593;48.398;10.698;2024-02-21T07:08:47;3.20;;;2.73;;
20865;SDS011;10593;48.398;10.698;2024-02-21T07:11:13;3.97;;;2.93;;
20865;SDS011;10593;48.398;10.698;2024-02-21T07:13:39;2.93;;;2.63;;
20865;SDS011;10593;48.398;10.698;2024-02-21T07:16:05;3.13;;;2.83;;
20865;SDS011;10593;48.398;10.698;2024-02-21T07:18:32;3.40;;;3.10;;
20865;SDS011;10593;48.398;10.698;2024-02-21T07:20:58;3.77;;;3.17;;
20865;SDS011;10593;48.398;10.698;2024-02-21T07:23:23;3.40;;;3.03;;
20865;SDS011;10593;48.398;10.698;2024-02-21T07:25:49;3.80;;;3.30;;
20865;SDS011;10593;48.398;10.698;2024-02-21T07:28:15;5.10;;;2.90;;
20865;SDS011;10593;48.398;10.698;2024-02-21T07:30:42;4.37;;;2.50;;
20865;SDS011;10593;48.398;10.698;2024-02-21T07:33:08;3.27;;;2.13;;
20865;SDS011;10593;48.398;10.698;2024-02-21T07:35:34;3.77;;;2.40;;
20865;SDS011;10593;48.398;10.698;2024-02-21T07:38:02;3.13;;;2.50;;
20865;SDS011;10593;48.398;10.698;2024-02-21T07:40:31;2.30;;;1.67;;
20865;SDS011;10593;48.398;10.698;2024-02-21T07:42:56;2.10;;;1.87;;
20865;SDS011;10593;48.398;10.698;2024-02-21T07:45:22;2.83;;;2.63;;
20865;SDS011;10593;48.398;10.698;2024-02-21T07:47:49;2.40;;;2.20;;
20865;SDS011;10593;48.398;10.698;2024-02-21T07:50:15;3.17;;;2.70;;
20865;SDS011;10593;48.398;10.698;2024-02-21T07:52:42;3.23;;;2.40;;
20865;SDS011;10593;48.398;10.698;2024-02-21T07:55:08;2.63;;;2.13;;
20865;SDS011;10593;48.398;10.698;2024-02-21T07:57:35;2.03;;;1.83;;
20865;SDS011;10593;48.398;10.698;2024-02-21T08:00:01;1.47;;;1.40;;
20865;SDS011;10593;48.398;10.698;2024-02-21T08:02:29;2.13;;;1.67;;
20865;SDS011;10593;48.398;10.698;2024-02-21T08:04:55;1.70;;;1.60;;
20865;SDS011;10593;48.398;10.698;2024-02-21T08:07:20;2.40;;;1.60;;
20865;SDS011;10593;48.398;10.698;2024-02-21T08:09:46;2.30;;;1.70;;
20865;SDS011;10593;48.398;10.698;2024-02-21T08:12:12;1.23;;;1.13;;
20865;SDS011;10593;48.398;10.698;2024-02-21T08:14:37;2.13;;;1.60;;
20865;SDS011;10593;48.398;10.698;2024-02-21T08:17:03;1.47;;;1.37;;
20865;SDS011;10593;48.398;10.698;2024-02-21T08:19:29;1.77;;;1.20;;
20865;SDS011;10593;48.398;10.698;2024-02-21T08:21:55;1.43;;;1.23;;
20865;SDS011;10593;48.398;10.698;2024-02-21T08:24:20;1.77;;;1.10;;
20865;SDS011;10593;48.398;10.698;2024-02-21T08:26:47;1.93;;;1.40;;
20865;SDS011;10593;48.398;10.698;2024-02-21T08:29:13;2.20;;;1.17;;
20865;SDS011;10593;48.398;10.698;2024-02-21T08:31:39;1.90;;;1.40;;
20865;SDS011;10593;48.398;10.698;2024-02-21T08:34:05;2.20;;;1.20;;
20865;SDS011;10593;48.398;10.698;2024-02-21T08:36:31;1.40;;;1.30;;
20865;SDS011;10593;48.398;10.698;2024-02-21T08:39:00;1.50;;;1.20;;
20865;SDS011;10593;48.398;10.698;2024-02-21T08:41:30;1.30;;;1.20;;
20865;SDS011;10593;48.398;10.698;2024-02-21T08:43:57;2.57;;;1.43;;
20865;SDS011;10593;48.398;10.698;2024-02-21T08:46:23;1.67;;;1.20;;
20865;SDS011;10593;48.398;10.698;2024-02-21T08:48:49;2.27;;;1.50;;
20865;SDS011;10593;48.398;10.698;2024-02-21T08:51:16;2.40;;;1.40;;
20865;SDS011;10593;48.398;10.698;2024-02-21T08:53:43;2.10;;;1.60;;
20865;SDS011;10593;48.398;10.698;2024-02-21T08:56:10;2.20;;;1.60;;
20865;SDS011;10593;48.398;10.698;2024-02-21T08:58:36;1.50;;;1.30;;
20865;SDS011;10593;48.398;10.698;2024-02-21T09:01:06;2.43;;;1.30;;
20865;SDS011;10593;48.398;10.698;2024-02-21T09:03:36;2.40;;;1.20;;
20865;SDS011;10593;48.398;10.698;2024-02-21T09:06:04;2.10;;;1.30;;
20865;SDS011;10593;48.398;10.698;2024-02-21T09:08:30;1.83;;;1.20;;
20865;SDS011;10593;48.398;10.698;2024-02-21T09:10:56;2.23;;;1.73;;
20865;SDS011;10593;48.398;10.698;2024-02-21T09:13:22;1.30;;;1.20;;
20865;SDS011;10593;48.398;10.698;2024-02-21T09:15:48;3.40;;;1.87;;
20865;SDS011;10593;48.398;10.698;2024-02-21T09:18:14;2.57;;;1.50;;
20865;SDS011;10593;48.398;10.698;2024-02-21T09:20:41;1.30;;;1.10;;
20865;SDS011;10593;48.398;10.698;2024-02-21T09:23:08;3.07;;;1.70;;
20865;SDS011;10593;48.398;10.698;2024-02-21T09:25:34;1.93;;;1.10;;
20865;SDS011;10593;48.398;10.698;2024-02-21T09:28:01;2.20;;;1.27;;
20865;SDS011;10593;48.398;10.698;2024-02-21T09:30:27;2.20;;;1.40;;
20865;SDS011;10593;48.398;10.698;2024-02-21T09:32:53;1.27;;;1.03;;
20865;SDS011;10593;48.398;10.698;2024-02-21T09:35:19;1.80;;;1.23;;
20865;SDS011;10593;48.398;10.698;2024-02-21T09:37:47;1.20;;;1.07;;
20865;SDS011;10593;48.398;10.698;2024-02-21T09:40:15;1.20;;;1.07;;
20865;SDS011;10593;48.398;10.698;2024-02-21T09:42:43;1.40;;;1.07;;
20865;SDS011;10593;48.398;10.698;2024-02-21T09:45:19;1.10;;;0.90;;
20865;SDS011;10593;48.398;10.698;2024-02-21T09:50:39;1.00;;;1.00;;
20865;SDS011;10593;48.398;10.698;2024-02-21T09:53:06;1.10;;;1.00;;
20865;SDS011;10593;48.398;10.698;2024-02-21T09:55:35;1.83;;;1.03;;
20865;SDS011;10593;48.398;10.698;2024-02-21T09:58:05;1.47;;;1.00;;
20865;SDS011;10593;48.398;10.698;2024-02-21T10:00:30;1.20;;;1.10;;
20865;SDS011;10593;48.398;10.698;2024-02-21T10:02:56;1.20;;;0.90;;
20865;SDS011;10593;48.398;10.698;2024-02-21T10:05:23;1.43;;;1.07;;
20865;SDS011;10593;48.398;10.698;2024-02-21T10:07:50;0.70;;;0.70;;
20865;SDS011;10593;48.398;10.698;2024-02-21T10:10:17;1.13;;;1.00;;
20865;SDS011;10593;48.398;10.698;2024-02-21T10:12:52;0.83;;;0.67;;
20865;SDS011;10593;48.398;10.698;2024-02-21T10:15:21;0.70;;;0.70;;
20865;SDS011;10593;48.398;10.698;2024-02-21T10:17:48;0.87;;;0.87;;
20865;SDS011;10593;48.398;10.698;2024-02-21T10:20:24;1.00;;;1.00;;
20865;SDS011;10593;48.398;10.698;2024-02-21T10:22:59;1.00;;;0.90;;
20865;SDS011;10593;48.398;10.698;2024-02-21T10:25:33;0.90;;;0.77;;
20865;SDS011;10593;48.398;10.698;2024-02-21T10:28:00;2.60;;;0.70;;
20865;SDS011;10593;48.398;10.698;2024-02-21T10:30:28;1.43;;;0.87;;
20865;SDS011;10593;48.398;10.698;2024-02-21T10:32:54;1.10;;;0.80;;
20865;SDS011;10593;48.398;10.698;2024-02-21T10:35:27;0.93;;;0.87;;
20865;SDS011;10593;48.398;10.698;2024-02-21T10:37:55;0.93;;;0.80;;
20865;SDS011;10593;48.398;10.698;2024-02-21T10:40:25;1.10;;;0.97;;
20865;SDS011;10593;48.398;10.698;2024-02-21T10:42:56;1.37;;;0.90;;
20865;SDS011;10593;48.398;10.698;2024-02-21T10:45:44;0.80;;;0.80;;
20865;SDS011;10593;48.398;10.698;2024-02-21T10:48:14;1.00;;;0.80;;
20865;SDS011;10593;48.398;10.698;2024-02-21T10:50:47;0.73;;;0.73;;
20865;SDS011;10593;48.398;10.698;2024-02-21T10:53:44;1.17;;;0.83;;
20865;SDS011;10593;48.398;10.698;2024-02-21T10:56:42;0.60;;;0.60;;
20865;SDS011;10593;48.398;10.698;2024-02-21T10:59:09;1.03;;;0.70;;
20865;SDS011;10593;48.398;10.698;2024-02-21T11:01:38;0.80;;;0.80;;
20865;SDS011;10593;48.398;10.698;2024-02-21T11:04:05;1.13;;;0.90;;
20865;SDS011;10593;48.398;10.698;2024-02-21T11:06:34;0.70;;;0.60;;
20865;SDS011;10593;48.398;10.698;2024-02-21T11:09:06;1.00;;;0.77;;
20865;SDS011;10593;48.398;10.698;2024-02-21T11:11:35;0.70;;;0.70;;
20865;SDS011;10593;48.398;10.698;2024-02-21T11:16:45;0.70;;;0.70;;
20865;SDS011;10593;48.398;10.698;2024-02-21T11:19:22;0.60;;;0.60;;
20865;SDS011;10593;48.398;10.698;2024-02-21T11:21:54;1.13;;;1.03;;
20865;SDS011;10593;48.398;10.698;2024-02-21T11:24:27;0.70;;;0.70;;
20865;SDS011;10593;48.398;10.698;2024-02-21T11:26:55;0.67;;;0.67;;
20865;SDS011;10593;48.398;10.698;2024-02-21T11:29:49;1.80;;;1.10;;
20865;SDS011;10593;48.398;10.698;2024-02-21T11:32:20;0.90;;;0.90;;
20865;SDS011;10593;48.398;10.698;2024-02-21T11:34:55;0.90;;;0.80;;
20865;SDS011;10593;48.398;10.698;2024-02-21T11:37:26;1.57;;;1.07;;
20865;SDS011;10593;48.398;10.698;2024-02-21T11:39:54;0.97;;;0.97;;
20865;SDS011;10593;48.398;10.698;2024-02-21T11:42:21;0.83;;;0.60;;
20865;SDS011;10593;48.398;10.698;2024-02-21T11:44:47;0.60;;;0.60;;
20865;SDS011;10593;48.398;10.698;2024-02-21T11:47:14;0.67;;;0.67;;
20865;SDS011;10593;48.398;10.698;2024-02-21T11:49:46;1.43;;;0.70;;
20865;SDS011;10593;48.398;10.698;2024-02-21T11:52:23;0.67;;;0.60;;
20865;SDS011;10593;48.398;10.698;2024-02-21T11:54:53;1.47;;;0.60;;
20865;SDS011;10593;48.398;10.698;2024-02-21T11:57:21;1.70;;;0.77;;
20865;SDS011;10593;48.398;10.698;2024-02-21T11:59:47;1.80;;;1.07;;
20865;SDS011;10593;48.398;10.698;2024-02-21T12:02:14;1.10;;;0.60;;
20865;SDS011;10593;48.398;10.698;2024-02-21T12:04:41;1.50;;;1.30;;
20865;SDS011;10593;48.398;10.698;2024-02-21T12:07:08;0.70;;;0.70;;
20865;SDS011;10593;48.398;10.698;2024-02-21T12:09:34;1.07;;;0.90;;
20865;SDS011;10593;48.398;10.698;2024-02-21T12:12:04;0.70;;;0.63;;
20865;SDS011;10593;48.398;10.698;2024-02-21T12:14:31;0.53;;;0.53;;
20865;SDS011;10593;48.398;10.698;2024-02-21T12:17:00;0.67;;;0.60;;
20865;SDS011;10593;48.398;10.698;2024-02-21T12:19:30;0.53;;;0.53;;
20865;SDS011;10593;48.398;10.698;2024-02-21T12:21:58;0.70;;;0.70;;
20865;SDS011;10593;48.398;10.698;2024-02-21T12:24:26;0.40;;;0.40;;
20865;SDS011;10593;48.398;10.698;2024-02-21T12:26:54;0.40;;;0.40;;
20865;SDS011;10593;48.398;10.698;2024-02-21T12:29:21;0.60;;;0.60;;
20865;SDS011;10593;48.398;10.698;2024-02-21T12:31:49;0.50;;;0.50;;
20865;SDS011;10593;48.398;10.698;2024-02-21T12:34:16;0.60;;;0.60;;
20865;SDS011;10593;48.398;10.698;2024-02-21T12:36:45;0.83;;;0.60;;
20865;SDS011;10593;48.398;10.698;2024-02-21T12:39:14;0.87;;;0.67;;
20865;SDS011;10593;48.398;10.698;2024-02-21T12:41:40;0.50;;;0.50;;
20865;SDS011;10593;48.398;10.698;2024-02-21T12:44:08;0.50;;;0.50;;
20865;SDS011;10593;48.398;10.698;2024-02-21T12:46:34;0.37;;;0.37;;
20865;SDS011;10593;48.398;10.698;2024-02-21T12:49:01;0.37;;;0.37;;
20865;SDS011;10593;48.398;10.698;2024-02-21T12:51:27;0.50;;;0.50;;
20865;SDS011;10593;48.398;10.698;2024-02-21T12:53:57;0.43;;;0.43;;
20865;SDS011;10593;48.398;10.698;2024-02-21T12:56:23;0.47;;;0.47;;
20865;SDS011;10593;48.398;10.698;2024-02-21T12:58:49;0.97;;;0.80;;
20865;SDS011;10593;48.398;10.698;2024-02-21T13:01:16;2.30;;;0.80;;
20865;SDS011;10593;48.398;10.698;2024-02-21T13:03:42;0.53;;;0.53;;
20865;SDS011;10593;48.398;10.698;2024-02-21T13:06:07;0.50;;;0.50;;
20865;SDS011;10593;48.398;10.698;2024-02-21T13:08:35;0.80;;;0.57;;
20865;SDS011;10593;48.398;10.698;2024-02-21T13:11:02;1.10;;;0.37;;
20865;SDS011;10593;48.398;10.698;2024-02-21T13:13:28;0.53;;;0.40;;
20865;SDS011;10593;48.398;10.698;2024-02-21T13:15:54;0.47;;;0.47;;
20865;SDS011;10593;48.398;10.698;2024-02-21T13:18:19;1.40;;;0.60;;
20865;SDS011;10593;48.398;10.698;2024-02-21T13:20:45;0.50;;;0.40;;
20865;SDS011;10593;48.398;10.698;2024-02-21T13:23:11;0.77;;;0.50;;
20865;SDS011;10593;48.398;10.698;2024-02-21T13:25:37;0.90;;;0.60;;
20865;SDS011;10593;48.398;10.698;2024-02-21T13:28:03;0.70;;;0.50;;
20865;SDS011;10593;48.398;10.698;2024-02-21T13:30:29;2.00;;;0.80;;
20865;SDS011;10593;48.398;10.698;2024-02-21T13:32:55;0.60;;;0.60;;
20865;SDS011;10593;48.398;10.698;2024-02-21T13:35:20;0.50;;;0.50;;
20865;SDS011;10593;48.398;10.698;2024-02-21T13:37:46;1.03;;;0.50;;
20865;SDS011;10593;48.398;10.698;2024-02-21T13:40:12;0.50;;;0.50;;
20865;SDS011;10593;48.398;10.698;2024-02-21T13:42:39;0.83;;;0.50;;
20865;SDS011;10593;48.398;10.698;2024-02-21T13:45:05;0.50;;;0.37;;
20865;SDS011;10593;48.398;10.698;2024-02-21T13:47:32;0.37;;;0.37;;
20865;SDS011;10593;48.398;10.698;2024-02-21T13:49:59;0.67;;;0.60;;
20865;SDS011;10593;48.398;10.698;2024-02-21T13:52:24;0.50;;;0.47;;
20865;SDS011;10593;48.398;10.698;2024-02-21T13:54:53;0.43;;;0.37;;
20865;SDS011;10593;48.398;10.698;2024-02-21T13:57:18;0.73;;;0.67;;
20865;SDS011;10593;48.398;10.698;2024-02-21T13:59:44;0.57;;;0.57;;
20865;SDS011;10593;48.398;10.698;2024-02-21T14:02:10;0.70;;;0.40;;
20865;SDS011;10593;48.398;10.698;2024-02-21T14:04:35;0.47;;;0.37;;
20865;SDS011;10593;48.398;10.698;2024-02-21T14:07:01;0.60;;;0.40;;
20865;SDS011;10593;48.398;10.698;2024-02-21T14:09:27;0.43;;;0.43;;
20865;SDS011;10593;48.398;10.698;2024-02-21T14:11:55;1.27;;;0.43;;
20865;SDS011;10593;48.398;10.698;2024-02-21T14:14:21;0.50;;;0.50;;
20865;SDS011;10593;48.398;10.698;2024-02-21T14:16:47;0.20;;;0.20;;
20865;SDS011;10593;48.398;10.698;2024-02-21T14:19:13;0.43;;;0.43;;
20865;SDS011;10593;48.398;10.698;2024-02-21T14:21:39;0.37;;;0.37;;
20865;SDS011;10593;48.398;10.698;2024-02-21T14:24:05;0.40;;;0.40;;
20865;SDS011;10593;48.398;10.698;2024-02-21T14:26:32;1.20;;;1.13;;
20865;SDS011;10593;48.398;10.698;2024-02-21T14:28:58;0.77;;;0.77;;
20865;SDS011;10593;48.398;10.698;2024-02-21T14:31:24;0.47;;;0.40;;
20865;SDS011;10593;48.398;10.698;2024-02-21T14:33:50;0.50;;;0.40;;
20865;SDS011;10593;48.398;10.698;2024-02-21T14:36:17;0.37;;;0.37;;
20865;SDS011;10593;48.398;10.698;2024-02-21T14:38:43;0.90;;;0.50;;
20865;SDS011;10593;48.398;10.698;2024-02-21T14:41:10;0.73;;;0.40;;